sensor_id;sensor_type;location;lat;lon;timestamp;P1;P2;P0
85015;PMS7003;75339;50.216;20.512;2024-03-23T00:52:30;58.00;50.00;30.50
85015;PMS7003;75339;50.216;20.512;2024-03-23T00:54:56;60.00;49.50;32.50
85015;PMS7003;75339;50.216;20.512;2024-03-23T00:57:23;50.00;41.00;24.00
85015;PMS7003;75339;50.216;20.512;2024-03-23T00:59:49;62.00;46.50;27.50
85015;PMS7003;75339;50.216;20.512;2024-03-23T01:02:16;63.50;51.50;32.00
85015;PMS7003;75339;50.216;20.512;2024-03-23T01:04:43;66.00;52.00;31.00
85015;PMS7003;75339;50.216;20.512;2024-03-23T01:07:09;52.50;43.50;27.50
85015;PMS7003;75339;50.216;20.512;2024-03-23T01:09:36;66.67;52.33;32.33
85015;PMS7003;75339;50.216;20.512;2024-03-23T01:12:05;61.00;49.67;31.67
85015;PMS7003;75339;50.216;20.512;2024-03-23T01:14:31;62.67;48.67;31.00
85015;PMS7003;75339;50.216;20.512;2024-03-23T01:16:58;65.00;51.00;31.00
85015;PMS7003;75339;50.216;20.512;2024-03-23T01:19:25;55.00;47.00;28.00
85015;PMS7003;75339;50.216;20.512;2024-03-23T01:21:51;59.00;47.00;31.00
85015;PMS7003;75339;50.216;20.512;2024-03-23T01:24:18;63.00;51.00;31.00
85015;PMS7003;75339;50.216;20.512;2024-03-23T01:26:48;63.00;51.00;32.00
85015;PMS7003;75339;50.216;20.512;2024-03-23T01:29:15;61.00;48.00;32.00
85015;PMS7003;75339;50.216;20.512;2024-03-23T01:31:41;53.00;43.00;31.00
85015;PMS7003;75339;50.216;20.512;2024-03-23T01:34:11;55.00;45.50;29.00
85015;PMS7003;75339;50.216;20.512;2024-03-23T01:36:39;59.50;46.00;32.00
85015;PMS7003;75339;50.216;20.512;2024-03-23T01:39:06;51.00;43.00;30.00
85015;PMS7003;75339;50.216;20.512;2024-03-23T01:41:44;54.00;44.00;28.00
85015;PMS7003;75339;50.216;20.512;2024-03-23T01:44:12;61.00;49.00;32.50
85015;PMS7003;75339;50.216;20.512;2024-03-23T01:46:39;45.67;39.33;25.00
85015;PMS7003;75339;50.216;20.512;2024-03-23T01:49:07;49.00;37.00;26.50
85015;PMS7003;75339;50.216;20.512;2024-03-23T01:51:36;52.67;45.00;28.33
85015;PMS7003;75339;50.216;20.512;2024-03-23T01:54:04;42.00;37.00;26.00
85015;PMS7003;75339;50.216;20.512;2024-03-23T01:56:33;54.00;43.50;30.00
85015;PMS7003;75339;50.216;20.512;2024-03-23T01:59:02;52.00;42.00;27.00
85015;PMS7003;75339;50.216;20.512;2024-03-23T02:01:37;41.00;39.00;26.00
85015;PMS7003;75339;50.216;20.512;2024-03-23T02:04:10;42.50;39.00;26.50
85015;PMS7003;75339;50.216;20.512;2024-03-23T02:06:39;50.00;44.00;30.00
85015;PMS7003;75339;50.216;20.512;2024-03-23T02:09:07;39.00;36.00;22.50
85015;PMS7003;75339;50.216;20.512;2024-03-23T02:11:34;41.50;40.00;26.00
85015;PMS7003;75339;50.216;20.512;2024-03-23T02:14:00;53.00;40.00;27.00
85015;PMS7003;75339;50.216;20.512;2024-03-23T02:16:27;49.00;39.00;28.00
85015;PMS7003;75339;50.216;20.512;2024-03-23T02:18:53;53.50;43.00;28.50
85015;PMS7003;75339;50.216;20.512;2024-03-23T02:21:19;47.00;40.33;25.67
85015;PMS7003;75339;50.216;20.512;2024-03-23T02:23:46;39.50;34.50;21.50
85015;PMS7003;75339;50.216;20.512;2024-03-23T02:26:12;45.00;38.50;25.00
85015;PMS7003;75339;50.216;20.512;2024-03-23T02:28:41;34.50;30.00;19.00
85015;PMS7003;75339;50.216;20.512;2024-03-23T02:31:07;46.00;40.00;25.00
85015;PMS7003;75339;50.216;20.512;2024-03-23T02:33:34;46.50;40.50;25.50
85015;PMS7003;75339;50.216;20.512;2024-03-23T02:36:04;44.00;40.00;27.00
85015;PMS7003;75339;50.216;20.512;2024-03-23T02:38:32;43.33;40.33;27.00
85015;PMS7003;75339;50.216;20.512;2024-03-23T02:41:03;40.00;38.00;27.00
85015;PMS7003;75339;50.216;20.512;2024-03-23T02:43:30;48.00;44.00;30.00
85015;PMS7003;75339;50.216;20.512;2024-03-23T02:45:56;41.50;39.50;27.00
85015;PMS7003;75339;50.216;20.512;2024-03-23T02:48:23;54.50;44.00;25.00
85015;PMS7003;75339;50.216;20.512;2024-03-23T02:50:50;50.50;44.00;27.50
85015;PMS7003;75339;50.216;20.512;2024-03-23T02:53:17;54.00;44.00;28.00
85015;PMS7003;75339;50.216;20.512;2024-03-23T02:55:44;50.00;42.33;29.67
85015;PMS7003;75339;50.216;20.512;2024-03-23T02:58:11;51.00;44.50;29.50
85015;PMS7003;75339;50.216;20.512;2024-03-23T03:00:37;47.33;41.00;28.33
85015;PMS7003;75339;50.216;20.512;2024-03-23T03:03:04;42.00;37.00;26.00
85015;PMS7003;75339;50.216;20.512;2024-03-23T03:05:31;44.00;38.00;26.50
85015;PMS7003;75339;50.216;20.512;2024-03-23T03:07:57;34.00;34.00;21.00
85015;PMS7003;75339;50.216;20.512;2024-03-23T03:10:24;40.00;34.00;21.00
85015;PMS7003;75339;50.216;20.512;2024-03-23T03:12:50;34.00;26.00;17.00
85015;PMS7003;75339;50.216;20.512;2024-03-23T03:15:17;38.00;31.00;21.00
85015;PMS7003;75339;50.216;20.512;2024-03-23T03:17:43;30.50;27.50;19.50
85015;PMS7003;75339;50.216;20.512;2024-03-23T03:20:11;27.00;23.00;16.00
85015;PMS7003;75339;50.216;20.512;2024-03-23T03:22:39;24.50;24.00;16.00
85015;PMS7003;75339;50.216;20.512;2024-03-23T03:25:06;25.00;19.00;15.00
85015;PMS7003;75339;50.216;20.512;2024-03-23T03:27:33;24.00;23.00;15.00
85015;PMS7003;75339;50.216;20.512;2024-03-23T03:30:00;30.50;25.50;19.50
85015;PMS7003;75339;50.216;20.512;2024-03-23T03:32:28;45.00;37.50;26.50
85015;PMS7003;75339;50.216;20.512;2024-03-23T03:34:55;45.00;41.00;26.00
85015;PMS7003;75339;50.216;20.512;2024-03-23T03:37:23;37.00;29.50;17.00
85015;PMS7003;75339;50.216;20.512;2024-03-23T03:39:50;52.50;41.50;27.50
85015;PMS7003;75339;50.216;20.512;2024-03-23T03:42:16;46.00;43.00;26.00
85015;PMS7003;75339;50.216;20.512;2024-03-23T03:44:43;49.50;42.50;29.00
85015;PMS7003;75339;50.216;20.512;2024-03-23T03:47:09;31.00;31.00;20.00
85015;PMS7003;75339;50.216;20.512;2024-03-23T03:49:36;42.00;35.00;23.00
85015;PMS7003;75339;50.216;20.512;2024-03-23T03:52:02;43.00;39.50;26.00
85015;PMS7003;75339;50.216;20.512;2024-03-23T03:54:29;43.00;34.00;22.00
85015;PMS7003;75339;50.216;20.512;2024-03-23T03:56:56;37.00;29.00;20.00
85015;PMS7003;75339;50.216;20.512;2024-03-23T03:59:26;37.50;31.00;20.00
85015;PMS7003;75339;50.216;20.512;2024-03-23T04:01:53;48.50;37.00;23.00
85015;PMS7003;75339;50.216;20.512;2024-03-23T04:04:20;35.50;31.50;19.50
85015;PMS7003;75339;50.216;20.512;2024-03-23T04:06:48;34.50;32.00;21.00
85015;PMS7003;75339;50.216;20.512;2024-03-23T04:09:15;41.67;32.67;21.33
85015;PMS7003;75339;50.216;20.512;2024-03-23T04:11:41;32.67;26.67;13.67
85015;PMS7003;75339;50.216;20.512;2024-03-23T04:14:08;36.00;28.00;19.00
85015;PMS7003;75339;50.216;20.512;2024-03-23T04:16:35;34.00;31.00;19.00
85015;PMS7003;75339;50.216;20.512;2024-03-23T04:19:01;34.00;31.00;22.00
85015;PMS7003;75339;50.216;20.512;2024-03-23T04:21:28;34.50;32.50;22.50
85015;PMS7003;75339;50.216;20.512;2024-03-23T04:23:54;38.00;34.00;23.00
85015;PMS7003;75339;50.216;20.512;2024-03-23T04:26:21;46.50;40.00;25.00
85015;PMS7003;75339;50.216;20.512;2024-03-23T04:28:47;45.00;40.00;27.00
85015;PMS7003;75339;50.216;20.512;2024-03-23T04:31:14;46.00;41.00;24.00
85015;PMS7003;75339;50.216;20.512;2024-03-23T04:33:40;39.50;31.00;20.50
85015;PMS7003;75339;50.216;20.512;2024-03-23T04:36:07;31.50;29.50;21.00
85015;PMS7003;75339;50.216;20.512;2024-03-23T04:38:34;38.50;32.50;20.50
85015;PMS7003;75339;50.216;20.512;2024-03-23T04:41:00;32.00;27.00;16.00
85015;PMS7003;75339;50.216;20.512;2024-03-23T04:43:28;39.00;36.00;24.00
85015;PMS7003;75339;50.216;20.512;2024-03-23T04:45:54;45.00;40.00;25.00
85015;PMS7003;75339;50.216;20.512;2024-03-23T04:48:21;37.00;33.50;26.00
85015;PMS7003;75339;50.216;20.512;2024-03-23T04:50:49;46.33;39.33;22.67
85015;PMS7003;75339;50.216;20.512;2024-03-23T04:53:20;53.00;44.50;27.00
85015;PMS7003;75339;50.216;20.512;2024-03-23T04:55:47;40.00;36.00;23.00
85015;PMS7003;75339;50.216;20.512;2024-03-23T04:58:13;43.00;40.50;25.00
85015;PMS7003;75339;50.216;20.512;2024-03-23T05:00:40;48.00;43.00;27.00
85015;PMS7003;75339;50.216;20.512;2024-03-23T05:03:06;46.00;41.00;27.00
85015;PMS7003;75339;50.216;20.512;2024-03-23T05:05:33;46.00;41.00;27.00
85015;PMS7003;75339;50.216;20.512;2024-03-23T05:08:01;23.00;23.00;9.00
85015;PMS7003;75339;50.216;20.512;2024-03-23T05:10:30;45.00;38.00;27.00
85015;PMS7003;75339;50.216;20.512;2024-03-23T05:13:00;58.00;46.00;30.00
85015;PMS7003;75339;50.216;20.512;2024-03-23T05:15:26;41.50;34.00;24.50
85015;PMS7003;75339;50.216;20.512;2024-03-23T05:17:53;41.00;33.00;20.00
85015;PMS7003;75339;50.216;20.512;2024-03-23T05:20:20;32.00;28.00;19.00
85015;PMS7003;75339;50.216;20.512;2024-03-23T05:22:47;30.00;26.00;19.00
85015;PMS7003;75339;50.216;20.512;2024-03-23T05:25:13;27.00;23.00;16.00
85015;PMS7003;75339;50.216;20.512;2024-03-23T05:27:42;30.00;23.00;15.00
85015;PMS7003;75339;50.216;20.512;2024-03-23T05:30:08;28.50;27.50;15.00
85015;PMS7003;75339;50.216;20.512;2024-03-23T05:32:35;21.50;20.50;15.00
85015;PMS7003;75339;50.216;20.512;2024-03-23T05:35:03;31.00;23.00;16.00
85015;PMS7003;75339;50.216;20.512;2024-03-23T05:37:29;23.00;19.00;15.00
85015;PMS7003;75339;50.216;20.512;2024-03-23T05:39:57;20.00;16.00;14.00
85015;PMS7003;75339;50.216;20.512;2024-03-23T05:42:23;28.00;23.50;15.50
85015;PMS7003;75339;50.216;20.512;2024-03-23T05:44:50;34.00;29.50;22.00
85015;PMS7003;75339;50.216;20.512;2024-03-23T05:47:16;31.00;24.00;16.50
85015;PMS7003;75339;50.216;20.512;2024-03-23T05:49:43;27.00;24.00;16.50
85015;PMS7003;75339;50.216;20.512;2024-03-23T05:52:11;47.00;38.00;24.00
85015;PMS7003;75339;50.216;20.512;2024-03-23T05:54:38;53.00;42.00;26.50
85015;PMS7003;75339;50.216;20.512;2024-03-23T05:57:04;33.50;32.50;23.00
85015;PMS7003;75339;50.216;20.512;2024-03-23T05:59:33;37.00;32.50;21.50
85015;PMS7003;75339;50.216;20.512;2024-03-23T06:02:00;33.00;27.50;19.00
85015;PMS7003;75339;50.216;20.512;2024-03-23T06:04:26;35.50;30.00;23.00
85015;PMS7003;75339;50.216;20.512;2024-03-23T06:06:53;26.00;21.50;16.50
85015;PMS7003;75339;50.216;20.512;2024-03-23T06:09:19;42.00;27.00;17.00
85015;PMS7003;75339;50.216;20.512;2024-03-23T06:11:46;30.67;29.67;18.67
85015;PMS7003;75339;50.216;20.512;2024-03-23T06:14:12;31.00;26.67;17.67
85015;PMS7003;75339;50.216;20.512;2024-03-23T06:16:39;35.00;33.33;20.67
85015;PMS7003;75339;50.216;20.512;2024-03-23T06:19:05;33.00;31.00;22.00
85015;PMS7003;75339;50.216;20.512;2024-03-23T06:21:33;32.50;31.00;19.00
85015;PMS7003;75339;50.216;20.512;2024-03-23T06:23:59;43.50;40.50;27.00
85015;PMS7003;75339;50.216;20.512;2024-03-23T06:26:26;38.00;34.00;22.00
85015;PMS7003;75339;50.216;20.512;2024-03-23T06:28:52;37.00;31.00;18.00
85015;PMS7003;75339;50.216;20.512;2024-03-23T06:31:20;28.00;27.00;19.00
85015;PMS7003;75339;50.216;20.512;2024-03-23T06:33:46;24.50;23.50;14.00
85015;PMS7003;75339;50.216;20.512;2024-03-23T06:36:13;23.00;22.00;14.00
85015;PMS7003;75339;50.216;20.512;2024-03-23T06:38:39;20.50;20.50;14.00
85015;PMS7003;75339;50.216;20.512;2024-03-23T06:41:06;29.00;29.00;19.00
85015;PMS7003;75339;50.216;20.512;2024-03-23T06:43:32;39.00;35.00;25.00
85015;PMS7003;75339;50.216;20.512;2024-03-23T06:45:59;50.00;40.67;26.67
85015;PMS7003;75339;50.216;20.512;2024-03-23T06:48:26;55.50;43.00;30.00
85015;PMS7003;75339;50.216;20.512;2024-03-23T06:50:58;42.50;37.50;24.00
85015;PMS7003;75339;50.216;20.512;2024-03-23T06:53:25;42.00;39.00;27.00
85015;PMS7003;75339;50.216;20.512;2024-03-23T06:55:53;37.00;32.50;20.50
85015;PMS7003;75339;50.216;20.512;2024-03-23T06:58:21;34.00;32.50;23.00
85015;PMS7003;75339;50.216;20.512;2024-03-23T07:00:52;35.00;31.67;23.00
85015;PMS7003;75339;50.216;20.512;2024-03-23T07:03:19;41.00;36.00;24.00
85015;PMS7003;75339;50.216;20.512;2024-03-23T07:05:48;49.00;42.00;26.50
85015;PMS7003;75339;50.216;20.512;2024-03-23T07:08:15;46.00;40.00;27.00
85015;PMS7003;75339;50.216;20.512;2024-03-23T07:10:47;43.00;38.50;23.00
85015;PMS7003;75339;50.216;20.512;2024-03-23T07:13:14;40.00;35.00;24.00
85015;PMS7003;75339;50.216;20.512;2024-03-23T07:15:41;26.00;26.00;17.00
85015;PMS7003;75339;50.216;20.512;2024-03-23T07:18:07;32.00;28.50;19.50
85015;PMS7003;75339;50.216;20.512;2024-03-23T07:20:34;36.50;31.00;20.00
85015;PMS7003;75339;50.216;20.512;2024-03-23T07:23:01;38.67;34.67;24.00
85015;PMS7003;75339;50.216;20.512;2024-03-23T07:25:27;44.00;40.00;28.00
85015;PMS7003;75339;50.216;20.512;2024-03-23T07:27:55;36.00;33.50;24.00
85015;PMS7003;75339;50.216;20.512;2024-03-23T07:30:21;52.50;42.00;28.00
85015;PMS7003;75339;50.216;20.512;2024-03-23T07:32:48;39.00;35.00;22.00
85015;PMS7003;75339;50.216;20.512;2024-03-23T07:35:14;33.67;29.33;19.00
85015;PMS7003;75339;50.216;20.512;2024-03-23T07:37:41;35.00;32.00;18.00
85015;PMS7003;75339;50.216;20.512;2024-03-23T07:40:08;33.00;31.00;19.00
85015;PMS7003;75339;50.216;20.512;2024-03-23T07:42:35;34.50;27.00;17.00
85015;PMS7003;75339;50.216;20.512;2024-03-23T07:45:02;32.00;29.00;18.50
85015;PMS7003;75339;50.216;20.512;2024-03-23T07:47:29;47.00;37.00;25.00
85015;PMS7003;75339;50.216;20.512;2024-03-23T07:49:56;57.00;46.50;30.00
85015;PMS7003;75339;50.216;20.512;2024-03-23T07:52:28;49.50;40.00;26.50
85015;PMS7003;75339;50.216;20.512;2024-03-23T07:54:58;53.50;41.50;27.00
85015;PMS7003;75339;50.216;20.512;2024-03-23T07:57:25;57.00;46.00;29.00
85015;PMS7003;75339;50.216;20.512;2024-03-23T07:59:52;53.00;43.00;27.50
85015;PMS7003;75339;50.216;20.512;2024-03-23T08:02:23;48.50;35.50;27.50
85015;PMS7003;75339;50.216;20.512;2024-03-23T08:04:49;42.50;37.50;28.00
85015;PMS7003;75339;50.216;20.512;2024-03-23T08:07:19;45.00;41.00;27.00
85015;PMS7003;75339;50.216;20.512;2024-03-23T08:09:46;52.50;42.50;26.50
85015;PMS7003;75339;50.216;20.512;2024-03-23T08:12:16;54.50;44.00;30.00
85015;PMS7003;75339;50.216;20.512;2024-03-23T08:14:44;41.67;38.00;26.33
85015;PMS7003;75339;50.216;20.512;2024-03-23T08:17:11;43.50;37.00;25.50
85015;PMS7003;75339;50.216;20.512;2024-03-23T08:19:37;40.33;38.67;26.33
85015;PMS7003;75339;50.216;20.512;2024-03-23T08:22:04;43.50;37.00;26.00
85015;PMS7003;75339;50.216;20.512;2024-03-23T08:24:30;45.50;41.00;26.50
85015;PMS7003;75339;50.216;20.512;2024-03-23T08:27:13;57.00;43.00;27.00
85015;PMS7003;75339;50.216;20.512;2024-03-23T08:29:40;38.50;32.00;20.00
85015;PMS7003;75339;50.216;20.512;2024-03-23T08:32:06;45.00;40.00;25.00
85015;PMS7003;75339;50.216;20.512;2024-03-23T08:34:33;41.00;37.00;25.50
85015;PMS7003;75339;50.216;20.512;2024-03-23T08:36:59;47.50;37.00;25.50
85015;PMS7003;75339;50.216;20.512;2024-03-23T08:39:26;40.00;35.00;23.00
85015;PMS7003;75339;50.216;20.512;2024-03-23T08:41:53;44.50;38.00;26.50
85015;PMS7003;75339;50.216;20.512;2024-03-23T08:44:19;30.00;27.00;20.00
85015;PMS7003;75339;50.216;20.512;2024-03-23T08:46:46;40.00;34.00;24.67
85015;PMS7003;75339;50.216;20.512;2024-03-23T08:49:12;35.00;32.50;23.00
85015;PMS7003;75339;50.216;20.512;2024-03-23T08:51:40;37.00;33.00;23.50
85015;PMS7003;75339;50.216;20.512;2024-03-23T08:54:07;37.00;31.00;18.00
85015;PMS7003;75339;50.216;20.512;2024-03-23T08:56:33;33.00;30.50;20.50
85015;PMS7003;75339;50.216;20.512;2024-03-23T08:59:00;35.00;30.00;21.00
85015;PMS7003;75339;50.216;20.512;2024-03-23T09:01:26;28.00;23.00;18.50
85015;PMS7003;75339;50.216;20.512;2024-03-23T09:03:53;33.00;25.00;19.00
85015;PMS7003;75339;50.216;20.512;2024-03-23T09:06:19;40.00;33.00;22.00
85015;PMS7003;75339;50.216;20.512;2024-03-23T09:08:46;38.00;37.00;25.00
85015;PMS7003;75339;50.216;20.512;2024-03-23T09:11:12;31.00;28.00;21.00
85015;PMS7003;75339;50.216;20.512;2024-03-23T09:13:39;35.50;33.00;22.00
85015;PMS7003;75339;50.216;20.512;2024-03-23T09:16:07;33.33;31.00;21.33
85015;PMS7003;75339;50.216;20.512;2024-03-23T09:18:35;36.50;32.50;21.00
85015;PMS7003;75339;50.216;20.512;2024-03-23T09:21:03;32.50;31.00;22.00
85015;PMS7003;75339;50.216;20.512;2024-03-23T09:23:36;35.00;28.00;20.00
85015;PMS7003;75339;50.216;20.512;2024-03-23T09:26:04;34.50;31.00;21.00
85015;PMS7003;75339;50.216;20.512;2024-03-23T09:28:33;27.00;26.00;21.00
85015;PMS7003;75339;50.216;20.512;2024-03-23T09:31:07;33.50;30.00;18.50
85015;PMS7003;75339;50.216;20.512;2024-03-23T09:33:34;28.00;25.67;18.00
85015;PMS7003;75339;50.216;20.512;2024-03-23T09:36:05;29.50;25.50;16.00
85015;PMS7003;75339;50.216;20.512;2024-03-23T09:38:32;30.33;28.00;17.67
85015;PMS7003;75339;50.216;20.512;2024-03-23T09:41:00;34.50;29.00;19.00
85015;PMS7003;75339;50.216;20.512;2024-03-23T09:43:26;34.00;28.50;18.00
85015;PMS7003;75339;50.216;20.512;2024-03-23T09:45:53;32.00;26.50;19.00
85015;PMS7003;75339;50.216;20.512;2024-03-23T09:48:20;26.00;24.00;19.00
85015;PMS7003;75339;50.216;20.512;2024-03-23T09:50:46;26.00;25.00;18.00
85015;PMS7003;75339;50.216;20.512;2024-03-23T09:53:14;29.00;24.67;17.00
85015;PMS7003;75339;50.216;20.512;2024-03-23T09:55:42;27.33;23.67;17.00
85015;PMS7003;75339;50.216;20.512;2024-03-23T09:58:14;23.67;19.67;14.67
85015;PMS7003;75339;50.216;20.512;2024-03-23T10:00:44;20.00;19.00;13.00
85015;PMS7003;75339;50.216;20.512;2024-03-23T10:03:11;22.00;19.00;14.00
85015;PMS7003;75339;50.216;20.512;2024-03-23T10:05:38;26.00;24.00;15.00
85015;PMS7003;75339;50.216;20.512;2024-03-23T10:08:38;20.00;18.50;14.00
85015;PMS7003;75339;50.216;20.512;2024-03-23T10:10:59;20.67;19.33;14.00
85015;PMS7003;75339;50.216;20.512;2024-03-23T10:13:42;25.50;21.50;16.00
85015;PMS7003;75339;50.216;20.512;2024-03-23T10:16:09;22.00;20.00;15.00
85015;PMS7003;75339;50.216;20.512;2024-03-23T10:18:39;27.00;24.00;16.00
85015;PMS7003;75339;50.216;20.512;2024-03-23T10:23:33;27.00;25.33;19.00
85015;PMS7003;75339;50.216;20.512;2024-03-23T10:28:54;28.00;23.00;16.50
85015;PMS7003;75339;50.216;20.512;2024-03-23T10:31:34;28.50;23.50;17.00
85015;PMS7003;75339;50.216;20.512;2024-03-23T10:34:06;24.00;22.00;14.67
85015;PMS7003;75339;50.216;20.512;2024-03-23T10:36:33;21.50;19.00;13.00
85015;PMS7003;75339;50.216;20.512;2024-03-23T10:39:01;23.00;22.00;17.00
85015;PMS7003;75339;50.216;20.512;2024-03-23T10:41:28;22.50;19.00;15.00
85015;PMS7003;75339;50.216;20.512;2024-03-23T10:43:57;20.50;19.50;15.00
85015;PMS7003;75339;50.216;20.512;2024-03-23T10:46:27;27.00;25.00;14.33
85015;PMS7003;75339;50.216;20.512;2024-03-23T10:48:54;21.00;21.00;14.00
85015;PMS7003;75339;50.216;20.512;2024-03-23T10:51:21;20.00;16.50;12.00
85015;PMS7003;75339;50.216;20.512;2024-03-23T10:53:47;19.00;18.00;14.00
85015;PMS7003;75339;50.216;20.512;2024-03-23T10:56:14;22.00;18.00;13.00
85015;PMS7003;75339;50.216;20.512;2024-03-23T10:58:43;19.00;19.00;13.00
85015;PMS7003;75339;50.216;20.512;2024-03-23T11:01:14;15.00;15.00;12.00
85015;PMS7003;75339;50.216;20.512;2024-03-23T11:03:44;18.00;17.00;13.50
85015;PMS7003;75339;50.216;20.512;2024-03-23T11:09:02;23.00;17.00;14.00
85015;PMS7003;75339;50.216;20.512;2024-03-23T11:11:29;24.00;21.00;14.00
85015;PMS7003;75339;50.216;20.512;2024-03-23T11:13:58;22.00;19.00;13.00
85015;PMS7003;75339;50.216;20.512;2024-03-23T11:16:26;26.00;21.00;16.00
85015;PMS7003;75339;50.216;20.512;2024-03-23T11:22:00;22.00;19.00;14.00
85015;PMS7003;75339;50.216;20.512;2024-03-23T11:24:28;17.00;16.00;9.00
85015;PMS7003;75339;50.216;20.512;2024-03-23T11:26:54;18.00;17.00;14.00
85015;PMS7003;75339;50.216;20.512;2024-03-23T11:29:21;19.00;16.00;13.50
85015;PMS7003;75339;50.216;20.512;2024-03-23T11:31:48;15.00;14.00;9.50
85015;PMS7003;75339;50.216;20.512;2024-03-23T11:34:19;14.50;13.00;8.50
85015;PMS7003;75339;50.216;20.512;2024-03-23T11:36:47;12.00;10.00;8.00
85015;PMS7003;75339;50.216;20.512;2024-03-23T11:39:17;12.00;11.00;9.00
85015;PMS7003;75339;50.216;20.512;2024-03-23T11:41:50;13.00;11.00;9.00
85015;PMS7003;75339;50.216;20.512;2024-03-23T11:44:19;12.00;10.00;8.00
85015;PMS7003;75339;50.216;20.512;2024-03-23T11:46:52;15.00;15.00;10.50
85015;PMS7003;75339;50.216;20.512;2024-03-23T11:49:20;16.00;11.00;9.00
85015;PMS7003;75339;50.216;20.512;2024-03-23T11:51:50;11.50;11.50;8.00
85015;PMS7003;75339;50.216;20.512;2024-03-23T11:54:21;11.50;10.00;8.00
85015;PMS7003;75339;50.216;20.512;2024-03-23T11:57:04;9.00;8.00;6.50
85015;PMS7003;75339;50.216;20.512;2024-03-23T12:02:05;12.50;10.00;7.50
85015;PMS7003;75339;50.216;20.512;2024-03-23T12:04:42;8.50;8.50;7.00
85015;PMS7003;75339;50.216;20.512;2024-03-23T12:07:21;7.00;6.00;5.00
85015;PMS7003;75339;50.216;20.512;2024-03-23T12:10:03;9.00;8.00;6.00
85015;PMS7003;75339;50.216;20.512;2024-03-23T12:12:33;7.00;7.00;5.50
85015;PMS7003;75339;50.216;20.512;2024-03-23T12:15:04;12.00;12.00;7.00
85015;PMS7003;75339;50.216;20.512;2024-03-23T12:17:32;9.00;8.50;7.00
85015;PMS7003;75339;50.216;20.512;2024-03-23T12:19:59;12.00;8.00;5.00
85015;PMS7003;75339;50.216;20.512;2024-03-23T12:22:25;8.00;5.00;4.00
85015;PMS7003;75339;50.216;20.512;2024-03-23T12:24:53;7.00;5.00;3.50
85015;PMS7003;75339;50.216;20.512;2024-03-23T12:27:20;8.00;7.50;6.50
85015;PMS7003;75339;50.216;20.512;2024-03-23T12:29:46;7.00;7.00;6.00
85015;PMS7003;75339;50.216;20.512;2024-03-23T12:32:13;7.00;7.00;6.00
85015;PMS7003;75339;50.216;20.512;2024-03-23T12:34:40;6.50;6.50;5.00
85015;PMS7003;75339;50.216;20.512;2024-03-23T12:37:07;8.50;7.50;6.00
85015;PMS7003;75339;50.216;20.512;2024-03-23T12:39:35;6.00;6.00;5.00
85015;PMS7003;75339;50.216;20.512;2024-03-23T12:42:03;6.00;6.00;5.00
85015;PMS7003;75339;50.216;20.512;2024-03-23T12:44:30;6.00;5.00;4.00
85015;PMS7003;75339;50.216;20.512;2024-03-23T12:46:56;7.50;7.00;6.00
85015;PMS7003;75339;50.216;20.512;2024-03-23T12:49:23;8.00;8.00;5.00
85015;PMS7003;75339;50.216;20.512;2024-03-23T12:51:53;12.00;12.00;10.00
85015;PMS7003;75339;50.216;20.512;2024-03-23T12:54:22;12.00;11.00;9.00
85015;PMS7003;75339;50.216;20.512;2024-03-23T12:56:52;12.00;11.00;7.00
85015;PMS7003;75339;50.216;20.512;2024-03-23T12:59:19;12.00;11.00;9.00
85015;PMS7003;75339;50.216;20.512;2024-03-23T13:01:46;12.00;9.00;7.00
85015;PMS7003;75339;50.216;20.512;2024-03-23T13:04:13;8.00;6.00;5.00
85015;PMS7003;75339;50.216;20.512;2024-03-23T13:06:40;6.00;6.00;5.00
85015;PMS7003;75339;50.216;20.512;2024-03-23T13:09:07;7.00;7.00;5.00
85015;PMS7003;75339;50.216;20.512;2024-03-23T13:11:35;7.00;7.00;5.00
85015;PMS7003;75339;50.216;20.512;2024-03-23T13:14:01;8.00;7.00;6.00
85015;PMS7003;75339;50.216;20.512;2024-03-23T13:16:30;6.00;5.00;4.00
85015;PMS7003;75339;50.216;20.512;2024-03-23T13:19:05;7.00;7.00;6.00
85015;PMS7003;75339;50.216;20.512;2024-03-23T13:21:32;7.00;7.00;6.00
85015;PMS7003;75339;50.216;20.512;2024-03-23T13:23:58;12.50;11.50;8.00
85015;PMS7003;75339;50.216;20.512;2024-03-23T13:26:26;9.00;7.00;6.00
85015;PMS7003;75339;50.216;20.512;2024-03-23T13:28:53;12.00;9.00;8.00
85015;PMS7003;75339;50.216;20.512;2024-03-23T13:31:19;8.00;8.00;5.50
85015;PMS7003;75339;50.216;20.512;2024-03-23T13:33:46;7.00;7.00;6.00
85015;PMS7003;75339;50.216;20.512;2024-03-23T13:36:12;6.00;6.00;5.00
85015;PMS7003;75339;50.216;20.512;2024-03-23T13:38:39;8.00;7.00;5.00
85015;PMS7003;75339;50.216;20.512;2024-03-23T13:41:13;7.00;7.00;6.00
85015;PMS7003;75339;50.216;20.512;2024-03-23T13:43:40;7.00;7.00;6.00
85015;PMS7003;75339;50.216;20.512;2024-03-23T13:46:07;6.00;6.00;4.00
85015;PMS7003;75339;50.216;20.512;2024-03-23T13:48:34;11.00;8.00;8.00
85015;PMS7003;75339;50.216;20.512;2024-03-23T13:51:03;11.00;8.00;7.00
85015;PMS7003;75339;50.216;20.512;2024-03-23T13:53:31;10.00;9.00;7.00
85015;PMS7003;75339;50.216;20.512;2024-03-23T13:55:59;10.00;9.00;7.00
85015;PMS7003;75339;50.216;20.512;2024-03-23T13:58:28;12.00;11.00;10.00
85015;PMS7003;75339;50.216;20.512;2024-03-23T14:00:56;7.50;7.50;6.00
85015;PMS7003;75339;50.216;20.512;2024-03-23T14:03:24;6.00;6.00;5.00
85015;PMS7003;75339;50.216;20.512;2024-03-23T14:05:50;8.00;7.00;6.00
85015;PMS7003;75339;50.216;20.512;2024-03-23T14:08:19;9.00;8.00;7.00
85015;PMS7003;75339;50.216;20.512;2024-03-23T14:10:47;6.50;6.50;5.50
85015;PMS7003;75339;50.216;20.512;2024-03-23T14:13:14;10.00;8.00;6.00
85015;PMS7003;75339;50.216;20.512;2024-03-23T14:15:41;7.00;7.00;5.50
85015;PMS7003;75339;50.216;20.512;2024-03-23T14:18:08;10.00;8.00;7.00
85015;PMS7003;75339;50.216;20.512;2024-03-23T14:20:34;6.00;5.00;5.00
85015;PMS7003;75339;50.216;20.512;2024-03-23T14:23:01;7.00;7.00;6.00
85015;PMS7003;75339;50.216;20.512;2024-03-23T14:25:27;8.00;5.00;5.00
85015;PMS7003;75339;50.216;20.512;2024-03-23T14:27:55;7.00;6.00;5.00
85015;PMS7003;75339;50.216;20.512;2024-03-23T14:30:22;9.00;7.00;5.00
85015;PMS7003;75339;50.216;20.512;2024-03-23T14:32:49;7.00;7.00;5.50
85015;PMS7003;75339;50.216;20.512;2024-03-23T14:35:15;6.00;6.00;5.00
85015;PMS7003;75339;50.216;20.512;2024-03-23T14:37:42;7.00;5.00;4.00
85015;PMS7003;75339;50.216;20.512;2024-03-23T14:40:08;6.00;6.00;6.00
85015;PMS7003;75339;50.216;20.512;2024-03-23T14:42:39;6.00;6.00;4.00
85015;PMS7003;75339;50.216;20.512;2024-03-23T14:45:06;9.00;8.00;5.50
85015;PMS7003;75339;50.216;20.512;2024-03-23T14:47:33;4.00;4.00;3.00
85015;PMS7003;75339;50.216;20.512;2024-03-23T14:49:59;7.00;6.00;5.00